sensor_id;sensor_type;location;lat;lon;timestamp;pressure;altitude;pressure_sealevel;temperature;humidity
56420;BME280;42323;52.170;7.538;2023-03-29T00:01:37;101397.16;;;4.40;85.07
56420;BME280;42323;52.170;7.538;2023-03-29T00:04:08;101402.59;;;4.48;85.20
56420;BME280;42323;52.170;7.538;2023-03-29T00:06:42;101359.44;;;4.25;84.77
56420;BME280;42323;52.170;7.538;2023-03-29T00:09:19;101361.22;;;4.24;85.21
56420;BME280;42323;52.170;7.538;2023-03-29T00:11:51;101320.75;;;3.99;84.93
56420;BME280;42323;52.170;7.538;2023-03-29T00:14:18;101339.16;;;4.19;84.96
56420;BME280;42323;52.170;7.538;2023-03-29T00:16:45;101370.53;;;4.38;85.03
56420;BME280;42323;52.170;7.538;2023-03-29T00:19:15;101306.84;;;4.00;85.77
56420;BME280;42323;52.170;7.538;2023-03-29T00:21:43;101355.09;;;4.37;85.66
56420;BME280;42323;52.170;7.538;2023-03-29T00:24:10;101364.03;;;4.44;85.36
56420;BME280;42323;52.170;7.538;2023-03-29T00:26:36;101361.34;;;4.45;85.42
56420;BME280;42323;52.170;7.538;2023-03-29T00:29:03;101342.81;;;4.39;85.81
56420;BME280;42323;52.170;7.538;2023-03-29T00:31:29;101356.84;;;4.47;85.81
56420;BME280;42323;52.170;7.538;2023-03-29T00:33:56;101353.31;;;4.48;85.26
56420;BME280;42323;52.170;7.538;2023-03-29T00:36:23;101344.81;;;4.46;85.58
56420;BME280;42323;52.170;7.538;2023-03-29T00:38:49;101330.06;;;4.36;85.40
56420;BME280;42323;52.170;7.538;2023-03-29T00:41:16;101337.03;;;4.35;85.69
56420;BME280;42323;52.170;7.538;2023-03-29T00:43:54;101335.97;;;4.38;85.49
56420;BME280;42323;52.170;7.538;2023-03-29T00:46:23;101329.25;;;4.35;85.50
56420;BME280;42323;52.170;7.538;2023-03-29T00:48:52;101325.72;;;4.25;85.67
56420;BME280;42323;52.170;7.538;2023-03-29T00:51:20;101317.09;;;4.13;85.89
56420;BME280;42323;52.170;7.538;2023-03-29T00:53:50;101320.19;;;4.07;86.25
56420;BME280;42323;52.170;7.538;2023-03-29T00:56:27;101337.03;;;4.13;86.35
56420;BME280;42323;52.170;7.538;2023-03-29T00:59:05;101335.97;;;4.15;86.14
56420;BME280;42323;52.170;7.538;2023-03-29T01:04:22;101328.91;;;4.28;86.20
56420;BME280;42323;52.170;7.538;2023-03-29T01:06:59;101307.47;;;4.15;86.11
56420;BME280;42323;52.170;7.538;2023-03-29T01:09:29;101322.53;;;4.21;85.69
56420;BME280;42323;52.170;7.538;2023-03-29T01:12:01;101329.00;;;4.27;85.85
56420;BME280;42323;52.170;7.538;2023-03-29T01:14:34;101311.81;;;4.26;86.04
56420;BME280;42323;52.170;7.538;2023-03-29T01:17:04;101313.00;;;4.33;85.55
56420;BME280;42323;52.170;7.538;2023-03-29T01:19:37;101324.28;;;4.43;85.38
56420;BME280;42323;52.170;7.538;2023-03-29T01:25:05;101304.13;;;4.47;85.04
56420;BME280;42323;52.170;7.538;2023-03-29T01:27:52;101299.75;;;4.47;85.01
56420;BME280;42323;52.170;7.538;2023-03-29T01:30:28;101298.94;;;4.47;84.71
56420;BME280;42323;52.170;7.538;2023-03-29T01:33:03;101294.56;;;4.47;84.65
56420;BME280;42323;52.170;7.538;2023-03-29T01:35:43;101286.34;;;4.42;84.84
56420;BME280;42323;52.170;7.538;2023-03-29T01:38:19;101284.91;;;4.49;84.89
56420;BME280;42323;52.170;7.538;2023-03-29T01:40:47;101281.47;;;4.49;84.66
56420;BME280;42323;52.170;7.538;2023-03-29T01:45:45;101270.28;;;4.48;84.94
56420;BME280;42323;52.170;7.538;2023-03-29T01:48:37;101260.84;;;4.47;84.75
56420;BME280;42323;52.170;7.538;2023-03-29T01:51:15;101242.22;;;4.42;85.27
56420;BME280;42323;52.170;7.538;2023-03-29T01:56:22;101240.94;;;4.37;84.77
56420;BME280;42323;52.170;7.538;2023-03-29T01:58:53;101234.13;;;4.24;85.26
56420;BME280;42323;52.170;7.538;2023-03-29T02:01:28;101239.31;;;4.24;85.08
56420;BME280;42323;52.170;7.538;2023-03-29T02:04:01;101240.81;;;4.27;85.41
56420;BME280;42323;52.170;7.538;2023-03-29T02:06:30;101238.59;;;4.22;85.38
56420;BME280;42323;52.170;7.538;2023-03-29T02:08:58;101252.50;;;4.33;85.65
56420;BME280;42323;52.170;7.538;2023-03-29T02:11:25;101245.66;;;4.32;85.45
56420;BME280;42323;52.170;7.538;2023-03-29T02:13:57;101247.31;;;4.33;85.39
56420;BME280;42323;52.170;7.538;2023-03-29T02:16:23;101249.56;;;4.37;85.10
56420;BME280;42323;52.170;7.538;2023-03-29T02:18:50;101245.19;;;4.38;84.77
56420;BME280;42323;52.170;7.538;2023-03-29T02:21:30;101247.88;;;4.47;84.94
56420;BME280;42323;52.170;7.538;2023-03-29T02:24:00;101237.25;;;4.50;84.56
56420;BME280;42323;52.170;7.538;2023-03-29T02:26:29;101235.72;;;4.48;84.24
56420;BME280;42323;52.170;7.538;2023-03-29T02:28:57;101238.66;;;4.55;84.45
56420;BME280;42323;52.170;7.538;2023-03-29T02:31:34;101195.78;;;4.39;84.29
56420;BME280;42323;52.170;7.538;2023-03-29T02:34:23;101226.53;;;4.55;84.14
56420;BME280;42323;52.170;7.538;2023-03-29T02:37:13;101204.59;;;4.48;83.77
56420;BME280;42323;52.170;7.538;2023-03-29T02:39:41;101204.97;;;4.43;83.91
56420;BME280;42323;52.170;7.538;2023-03-29T02:42:08;101191.03;;;4.44;83.58
56420;BME280;42323;52.170;7.538;2023-03-29T02:44:38;101198.44;;;4.49;83.57
56420;BME280;42323;52.170;7.538;2023-03-29T02:47:19;101196.81;;;4.48;83.83
56420;BME280;42323;52.170;7.538;2023-03-29T02:49:47;101175.03;;;4.39;83.91
56420;BME280;42323;52.170;7.538;2023-03-29T02:52:18;101189.28;;;4.45;83.98
56420;BME280;42323;52.170;7.538;2023-03-29T02:54:49;101191.50;;;4.49;83.95
56420;BME280;42323;52.170;7.538;2023-03-29T02:57:20;101175.59;;;4.43;83.67
56420;BME280;42323;52.170;7.538;2023-03-29T02:59:52;101168.41;;;4.35;83.77
56420;BME280;42323;52.170;7.538;2023-03-29T03:02:20;101188.91;;;4.49;83.46
56420;BME280;42323;52.170;7.538;2023-03-29T03:04:46;101171.94;;;4.45;84.05
56420;BME280;42323;52.170;7.538;2023-03-29T03:07:13;101153.94;;;4.33;83.95
56420;BME280;42323;52.170;7.538;2023-03-29T03:09:39;101140.63;;;4.26;83.68
56420;BME280;42323;52.170;7.538;2023-03-29T03:12:06;101173.22;;;4.51;83.38
56420;BME280;42323;52.170;7.538;2023-03-29T03:14:33;101163.22;;;4.46;83.78
56420;BME280;42323;52.170;7.538;2023-03-29T03:17:00;101167.91;;;4.52;83.67
56420;BME280;42323;52.170;7.538;2023-03-29T03:19:30;101157.53;;;4.52;84.07
56420;BME280;42323;52.170;7.538;2023-03-29T03:21:56;101152.84;;;4.46;84.05
56420;BME280;42323;52.170;7.538;2023-03-29T03:24:23;101143.88;;;4.39;84.02
56420;BME280;42323;52.170;7.538;2023-03-29T03:26:49;101150.81;;;4.50;83.66
56420;BME280;42323;52.170;7.538;2023-03-29T03:29:16;101131.06;;;4.38;83.58
56420;BME280;42323;52.170;7.538;2023-03-29T03:31:42;101142.69;;;4.43;83.85
56420;BME280;42323;52.170;7.538;2023-03-29T03:34:10;101155.63;;;4.55;83.75
56420;BME280;42323;52.170;7.538;2023-03-29T03:36:36;101123.50;;;4.35;83.41
56420;BME280;42323;52.170;7.538;2023-03-29T03:39:03;101120.22;;;4.33;84.21
56420;BME280;42323;52.170;7.538;2023-03-29T03:41:30;101144.34;;;4.44;83.97
56420;BME280;42323;52.170;7.538;2023-03-29T03:43:58;101134.69;;;4.46;84.34
56420;BME280;42323;52.170;7.538;2023-03-29T03:46:25;101150.69;;;4.51;83.83
56420;BME280;42323;52.170;7.538;2023-03-29T03:48:54;101145.06;;;4.46;83.87
56420;BME280;42323;52.170;7.538;2023-03-29T03:51:23;101162.81;;;4.62;83.55
56420;BME280;42323;52.170;7.538;2023-03-29T03:53:50;101161.03;;;4.63;84.41
56420;BME280;42323;52.170;7.538;2023-03-29T03:56:16;101151.03;;;4.58;83.83
56420;BME280;42323;52.170;7.538;2023-03-29T03:58:43;101125.94;;;4.47;83.74
56420;BME280;42323;52.170;7.538;2023-03-29T04:01:09;101134.97;;;4.53;83.38
56420;BME280;42323;52.170;7.538;2023-03-29T04:03:37;101137.91;;;4.60;83.48
56420;BME280;42323;52.170;7.538;2023-03-29T04:06:04;101149.19;;;4.70;83.35
56420;BME280;42323;52.170;7.538;2023-03-29T04:08:31;101121.19;;;4.52;83.61
56420;BME280;42323;52.170;7.538;2023-03-29T04:10:58;101149.09;;;4.71;83.04
56420;BME280;42323;52.170;7.538;2023-03-29T04:13:26;101150.00;;;4.70;83.03
56420;BME280;42323;52.170;7.538;2023-03-29T04:15:53;101132.34;;;4.64;83.08
56420;BME280;42323;52.170;7.538;2023-03-29T04:18:24;101141.69;;;4.67;83.24
56420;BME280;42323;52.170;7.538;2023-03-29T04:20:50;101122.34;;;4.60;83.48
56420;BME280;42323;52.170;7.538;2023-03-29T04:23:17;101134.81;;;4.66;83.40
56420;BME280;42323;52.170;7.538;2023-03-29T04:25:43;101103.31;;;4.49;83.83
56420;BME280;42323;52.170;7.538;2023-03-29T04:28:11;101131.28;;;4.67;83.98
56420;BME280;42323;52.170;7.538;2023-03-29T04:30:38;101121.72;;;4.67;83.78
56420;BME280;42323;52.170;7.538;2023-03-29T04:33:04;101120.91;;;4.67;83.42
56420;BME280;42323;52.170;7.538;2023-03-29T04:35:31;101113.38;;;4.64;83.72
56420;BME280;42323;52.170;7.538;2023-03-29T04:37:58;101099.97;;;4.59;83.85
56420;BME280;42323;52.170;7.538;2023-03-29T04:40:25;101109.34;;;4.71;83.65
56420;BME280;42323;52.170;7.538;2023-03-29T04:42:51;101114.25;;;4.74;83.56
56420;BME280;42323;52.170;7.538;2023-03-29T04:45:19;101114.00;;;4.77;83.34
56420;BME280;42323;52.170;7.538;2023-03-29T04:47:46;101117.44;;;4.77;83.41
56420;BME280;42323;52.170;7.538;2023-03-29T04:50:12;101113.44;;;4.73;83.31
56420;BME280;42323;52.170;7.538;2023-03-29T04:53:00;101076.97;;;4.54;83.35
56420;BME280;42323;52.170;7.538;2023-03-29T04:55:39;101070.50;;;4.48;83.37
56420;BME280;42323;52.170;7.538;2023-03-29T04:58:06;101093.66;;;4.61;83.79
56420;BME280;42323;52.170;7.538;2023-03-29T05:00:33;101102.38;;;4.71;83.66
56420;BME280;42323;52.170;7.538;2023-03-29T05:03:00;101094.44;;;4.73;83.29
56420;BME280;42323;52.170;7.538;2023-03-29T05:05:27;101103.75;;;4.75;83.62
56420;BME280;42323;52.170;7.538;2023-03-29T05:07:53;101096.78;;;4.76;83.58
56420;BME280;42323;52.170;7.538;2023-03-29T05:10:23;101093.09;;;4.78;84.11
56420;BME280;42323;52.170;7.538;2023-03-29T05:12:50;101083.94;;;4.74;83.62
56420;BME280;42323;52.170;7.538;2023-03-29T05:15:20;101077.34;;;4.70;83.75
56420;BME280;42323;52.170;7.538;2023-03-29T05:17:46;101087.53;;;4.83;83.42
56420;BME280;42323;52.170;7.538;2023-03-29T05:20:14;101084.81;;;4.85;83.49
56420;BME280;42323;52.170;7.538;2023-03-29T05:22:43;101084.25;;;4.81;83.50
56420;BME280;42323;52.170;7.538;2023-03-29T05:25:10;101090.03;;;4.85;83.18
56420;BME280;42323;52.170;7.538;2023-03-29T05:27:37;101073.06;;;4.81;83.41
56420;BME280;42323;52.170;7.538;2023-03-29T05:30:04;101087.59;;;4.93;83.37
56420;BME280;42323;52.170;7.538;2023-03-29T05:32:30;101059.50;;;4.77;83.39
56420;BME280;42323;52.170;7.538;2023-03-29T05:35:00;101085.84;;;4.93;83.48
56420;BME280;42323;52.170;7.538;2023-03-29T05:37:27;101085.84;;;4.93;83.14
56420;BME280;42323;52.170;7.538;2023-03-29T05:39:53;101073.34;;;4.87;83.14
56420;BME280;42323;52.170;7.538;2023-03-29T05:42:31;101090.66;;;4.98;83.53
56420;BME280;42323;52.170;7.538;2023-03-29T05:44:57;101079.94;;;4.91;83.03
56420;BME280;42323;52.170;7.538;2023-03-29T05:47:24;101088.22;;;5.06;83.16
56420;BME280;42323;52.170;7.538;2023-03-29T05:49:51;101087.03;;;5.10;82.85
56420;BME280;42323;52.170;7.538;2023-03-29T05:52:17;101087.03;;;5.10;83.06
56420;BME280;42323;52.170;7.538;2023-03-29T05:54:44;101076.63;;;5.10;83.08
56420;BME280;42323;52.170;7.538;2023-03-29T05:57:11;101067.84;;;5.01;83.63
56420;BME280;42323;52.170;7.538;2023-03-29T05:59:38;101094.44;;;5.15;83.71
56420;BME280;42323;52.170;7.538;2023-03-29T06:02:04;101084.84;;;5.15;83.87
56420;BME280;42323;52.170;7.538;2023-03-29T06:04:31;101097.59;;;5.18;84.08
56420;BME280;42323;52.170;7.538;2023-03-29T06:06:58;101080.16;;;5.09;84.65
56420;BME280;42323;52.170;7.538;2023-03-29T06:09:27;101072.22;;;5.01;85.31
56420;BME280;42323;52.170;7.538;2023-03-29T06:11:54;101104.59;;;5.27;85.30
56420;BME280;42323;52.170;7.538;2023-03-29T06:14:21;101105.72;;;5.35;85.85
56420;BME280;42323;52.170;7.538;2023-03-29T06:16:50;101081.91;;;5.29;86.02
56420;BME280;42323;52.170;7.538;2023-03-29T06:19:16;101090.91;;;5.25;86.25
56420;BME280;42323;52.170;7.538;2023-03-29T06:21:44;101092.25;;;5.20;87.14
56420;BME280;42323;52.170;7.538;2023-03-29T06:24:10;101111.56;;;5.27;87.13
56420;BME280;42323;52.170;7.538;2023-03-29T06:26:36;101110.63;;;5.28;88.13
56420;BME280;42323;52.170;7.538;2023-03-29T06:29:03;101067.34;;;5.17;88.69
56420;BME280;42323;52.170;7.538;2023-03-29T06:31:29;101080.78;;;5.22;88.76
56420;BME280;42323;52.170;7.538;2023-03-29T06:33:56;101068.75;;;5.21;89.01
56420;BME280;42323;52.170;7.538;2023-03-29T06:36:23;101072.72;;;5.25;89.35
56420;BME280;42323;52.170;7.538;2023-03-29T06:38:51;101085.41;;;5.49;88.81
56420;BME280;42323;52.170;7.538;2023-03-29T06:41:18;101075.84;;;5.50;89.04
56420;BME280;42323;52.170;7.538;2023-03-29T06:43:44;101088.44;;;5.54;89.12
56420;BME280;42323;52.170;7.538;2023-03-29T06:46:11;101086.50;;;5.57;89.18
56420;BME280;42323;52.170;7.538;2023-03-29T06:48:38;101089.00;;;5.58;89.41
56420;BME280;42323;52.170;7.538;2023-03-29T06:51:05;101074.47;;;5.56;89.83
56420;BME280;42323;52.170;7.538;2023-03-29T06:53:33;101086.28;;;5.69;89.12
56420;BME280;42323;52.170;7.538;2023-03-29T06:56:00;101085.88;;;5.74;89.71
56420;BME280;42323;52.170;7.538;2023-03-29T07:17:17;101026.63;;;5.68;88.01
56420;BME280;42323;52.170;7.538;2023-03-29T07:19:44;101102.94;;;6.17;87.89
56420;BME280;42323;52.170;7.538;2023-03-29T07:22:10;101105.56;;;6.26;87.06
56420;BME280;42323;52.170;7.538;2023-03-29T07:24:37;101105.44;;;6.18;87.27
56420;BME280;42323;52.170;7.538;2023-03-29T07:27:03;101109.25;;;6.24;87.15
56420;BME280;42323;52.170;7.538;2023-03-29T07:29:30;101116.81;;;6.27;87.82
56420;BME280;42323;52.170;7.538;2023-03-29T07:31:57;101108.84;;;6.28;87.03
56420;BME280;42323;52.170;7.538;2023-03-29T07:34:24;101099.53;;;6.26;87.20
56420;BME280;42323;52.170;7.538;2023-03-29T07:36:50;101106.94;;;6.31;86.53
56420;BME280;42323;52.170;7.538;2023-03-29T07:39:17;101101.03;;;6.38;86.68
56420;BME280;42323;52.170;7.538;2023-03-29T07:41:43;101105.00;;;6.42;86.09
56420;BME280;42323;52.170;7.538;2023-03-29T07:44:10;101097.75;;;6.46;86.24
56420;BME280;42323;52.170;7.538;2023-03-29T07:46:36;101105.56;;;6.46;85.25
56420;BME280;42323;52.170;7.538;2023-03-29T07:49:03;101092.41;;;6.47;85.06
56420;BME280;42323;52.170;7.538;2023-03-29T07:51:30;101112.53;;;6.65;85.39
56420;BME280;42323;52.170;7.538;2023-03-29T07:53:57;101119.41;;;6.75;84.51
56420;BME280;42323;52.170;7.538;2023-03-29T07:56:25;101113.22;;;6.76;84.62
56420;BME280;42323;52.170;7.538;2023-03-29T07:58:51;101107.88;;;6.78;83.94
56420;BME280;42323;52.170;7.538;2023-03-29T08:01:18;101101.97;;;6.76;84.44
56420;BME280;42323;52.170;7.538;2023-03-29T08:03:45;101089.25;;;6.83;83.64
56420;BME280;42323;52.170;7.538;2023-03-29T08:06:12;101096.47;;;6.89;83.90
56420;BME280;42323;52.170;7.538;2023-03-29T08:08:42;101096.44;;;6.98;83.59
56420;BME280;42323;52.170;7.538;2023-03-29T08:11:09;101097.97;;;7.01;83.86
56420;BME280;42323;52.170;7.538;2023-03-29T08:13:35;101107.38;;;7.12;83.06
56420;BME280;42323;52.170;7.538;2023-03-29T08:16:02;101086.53;;;7.12;82.93
56420;BME280;42323;52.170;7.538;2023-03-29T08:18:31;101107.72;;;7.36;82.39
56420;BME280;42323;52.170;7.538;2023-03-29T08:21:00;101109.22;;;7.39;81.92
56420;BME280;42323;52.170;7.538;2023-03-29T08:23:27;101102.91;;;7.41;80.87
56420;BME280;42323;52.170;7.538;2023-03-29T08:25:53;101101.91;;;7.52;81.59
56420;BME280;42323;52.170;7.538;2023-03-29T08:28:19;101080.13;;;7.43;81.61
56420;BME280;42323;52.170;7.538;2023-03-29T08:30:46;101103.59;;;7.71;80.18
56420;BME280;42323;52.170;7.538;2023-03-29T08:33:13;101090.47;;;7.80;79.51
56420;BME280;42323;52.170;7.538;2023-03-29T08:35:41;101106.16;;;7.98;79.05
56420;BME280;42323;52.170;7.538;2023-03-29T08:43:48;101096.56;;;8.17;78.80
56420;BME280;42323;52.170;7.538;2023-03-29T08:46:34;101069.06;;;8.04;78.79
56420;BME280;42323;52.170;7.538;2023-03-29T09:13:21;101102.84;;;9.03;75.48
56420;BME280;42323;52.170;7.538;2023-03-29T09:56:29;101026.44;;;8.58;77.57
56420;BME280;42323;52.170;7.538;2023-03-29T10:15:03;101063.03;;;9.52;77.59
56420;BME280;42323;52.170;7.538;2023-03-29T10:17:37;101084.13;;;9.50;78.17
56420;BME280;42323;52.170;7.538;2023-03-29T10:20:09;101088.97;;;9.37;78.72
56420;BME280;42323;52.170;7.538;2023-03-29T10:22:38;101089.66;;;9.13;79.41
56420;BME280;42323;52.170;7.538;2023-03-29T10:25:13;101095.59;;;8.97;79.58
56420;BME280;42323;52.170;7.538;2023-03-29T10:27:42;101091.88;;;9.00;80.65
56420;BME280;42323;52.170;7.538;2023-03-29T10:30:17;101087.16;;;9.03;82.44
56420;BME280;42323;52.170;7.538;2023-03-29T10:32:44;101083.81;;;8.93;83.27
56420;BME280;42323;52.170;7.538;2023-03-29T10:35:21;101102.09;;;8.93;84.50
56420;BME280;42323;52.170;7.538;2023-03-29T10:37:51;101096.97;;;8.84;86.30
56420;BME280;42323;52.170;7.538;2023-03-29T10:40:21;101080.16;;;8.60;85.90
56420;BME280;42323;52.170;7.538;2023-03-29T10:42:51;101078.59;;;8.49;86.82
56420;BME280;42323;52.170;7.538;2023-03-29T10:45:32;101074.19;;;8.50;87.69
56420;BME280;42323;52.170;7.538;2023-03-29T10:47:59;101064.94;;;8.56;87.64
56420;BME280;42323;52.170;7.538;2023-03-29T10:50:33;101059.72;;;8.56;88.25
56420;BME280;42323;52.170;7.538;2023-03-29T10:53:00;101049.88;;;8.49;87.55
56420;BME280;42323;52.170;7.538;2023-03-29T10:55:34;101035.28;;;8.39;87.09
56420;BME280;42323;52.170;7.538;2023-03-29T11:08:55;101062.75;;;8.69;86.44
56420;BME280;42323;52.170;7.538;2023-03-29T11:14:08;101071.13;;;9.07;85.72
56420;BME280;42323;52.170;7.538;2023-03-29T11:16:44;101077.56;;;9.12;85.77
56420;BME280;42323;52.170;7.538;2023-03-29T11:22:44;101077.88;;;9.09;85.31
56420;BME280;42323;52.170;7.538;2023-03-29T11:25:49;101073.63;;;9.08;84.56
56420;BME280;42323;52.170;7.538;2023-03-29T11:31:17;101075.13;;;9.19;85.65
56420;BME280;42323;52.170;7.538;2023-03-29T11:34:25;101007.03;;;8.86;85.85
56420;BME280;42323;52.170;7.538;2023-03-29T11:37:05;101072.56;;;9.27;86.42
56420;BME280;42323;52.170;7.538;2023-03-29T11:42:33;101036.25;;;9.24;87.69
56420;BME280;42323;52.170;7.538;2023-03-29T11:45:02;101049.22;;;9.34;88.07
56420;BME280;42323;52.170;7.538;2023-03-29T11:47:35;101038.59;;;9.35;88.35
56420;BME280;42323;52.170;7.538;2023-03-29T11:50:16;101006.34;;;9.18;87.18
56420;BME280;42323;52.170;7.538;2023-03-29T11:52:51;101009.09;;;9.09;87.91
56420;BME280;42323;52.170;7.538;2023-03-29T11:55:27;101017.47;;;9.20;87.48
56420;BME280;42323;52.170;7.538;2023-03-29T11:57:58;100989.06;;;9.25;87.09
56420;BME280;42323;52.170;7.538;2023-03-29T12:00:37;101054.41;;;9.68;86.61
56420;BME280;42323;52.170;7.538;2023-03-29T12:03:13;101059.78;;;9.66;86.19
56420;BME280;42323;52.170;7.538;2023-03-29T12:08:29;101049.66;;;9.63;86.36
56420;BME280;42323;52.170;7.538;2023-03-29T12:13:31;101043.03;;;9.93;85.18
56420;BME280;42323;52.170;7.538;2023-03-29T12:16:05;101030.56;;;9.95;84.55
56420;BME280;42323;52.170;7.538;2023-03-29T12:18:48;100948.72;;;9.44;84.64
56420;BME280;42323;52.170;7.538;2023-03-29T12:21:22;101026.84;;;10.06;83.93
56420;BME280;42323;52.170;7.538;2023-03-29T12:23:49;101004.22;;;10.05;83.60
56420;BME280;42323;52.170;7.538;2023-03-29T12:40:19;100959.25;;;10.34;81.08
56420;BME280;42323;52.170;7.538;2023-03-29T12:42:57;100999.16;;;10.61;81.76
56420;BME280;42323;52.170;7.538;2023-03-29T12:45:35;100981.19;;;10.41;81.55
56420;BME280;42323;52.170;7.538;2023-03-29T12:48:02;100999.16;;;10.44;81.74
56420;BME280;42323;52.170;7.538;2023-03-29T12:50:35;100977.28;;;10.29;82.13
56420;BME280;42323;52.170;7.538;2023-03-29T12:53:26;101024.91;;;10.41;82.69
56420;BME280;42323;52.170;7.538;2023-03-29T13:04:11;101001.97;;;10.43;82.16
56420;BME280;42323;52.170;7.538;2023-03-29T13:09:23;101015.19;;;10.58;82.50
56420;BME280;42323;52.170;7.538;2023-03-29T13:11:54;100993.41;;;10.57;82.22
56420;BME280;42323;52.170;7.538;2023-03-29T13:14:25;100967.91;;;10.51;81.50
56420;BME280;42323;52.170;7.538;2023-03-29T13:17:03;100971.16;;;10.53;82.79
56420;BME280;42323;52.170;7.538;2023-03-29T13:22:52;100996.47;;;10.85;82.69
56420;BME280;42323;52.170;7.538;2023-03-29T13:25:36;100979.72;;;10.94;82.45
56420;BME280;42323;52.170;7.538;2023-03-29T13:28:31;100994.03;;;11.23;82.11
56420;BME280;42323;52.170;7.538;2023-03-29T13:34:08;100981.00;;;11.07;80.96
56420;BME280;42323;52.170;7.538;2023-03-29T13:36:46;100995.03;;;11.14;80.82
56420;BME280;42323;52.170;7.538;2023-03-29T13:39:23;100938.34;;;10.73;80.51
56420;BME280;42323;52.170;7.538;2023-03-29T13:42:07;100957.00;;;10.78;81.08
56420;BME280;42323;52.170;7.538;2023-03-29T13:44:42;100991.22;;;10.93;81.18
56420;BME280;42323;52.170;7.538;2023-03-29T13:50:39;100989.59;;;10.84;81.53
56420;BME280;42323;52.170;7.538;2023-03-29T13:53:27;100971.59;;;10.73;81.63
56420;BME280;42323;52.170;7.538;2023-03-29T13:55:56;100959.50;;;10.72;82.09
56420;BME280;42323;52.170;7.538;2023-03-29T14:03:42;100956.44;;;10.99;83.16
56420;BME280;42323;52.170;7.538;2023-03-29T14:06:13;100939.81;;;11.15;82.81
56420;BME280;42323;52.170;7.538;2023-03-29T14:08:42;100936.78;;;11.58;80.32
56420;BME280;42323;52.170;7.538;2023-03-29T14:11:22;100933.44;;;12.10;79.36
56420;BME280;42323;52.170;7.538;2023-03-29T14:14:01;100931.66;;;12.54;77.24
56420;BME280;42323;52.170;7.538;2023-03-29T14:16:33;100907.00;;;12.41;77.49
56420;BME280;42323;52.170;7.538;2023-03-29T14:22:18;100926.69;;;12.45;77.07
56420;BME280;42323;52.170;7.538;2023-03-29T14:24:50;100868.84;;;12.15;77.91
56420;BME280;42323;52.170;7.538;2023-03-29T14:27:18;100886.44;;;12.15;76.80
56420;BME280;42323;52.170;7.538;2023-03-29T14:30:29;100879.16;;;12.17;77.48
56420;BME280;42323;52.170;7.538;2023-03-29T14:32:57;100886.63;;;12.28;76.87
56420;BME280;42323;52.170;7.538;2023-03-29T14:35:30;100882.09;;;12.37;77.16
56420;BME280;42323;52.170;7.538;2023-03-29T14:37:59;100864.25;;;12.32;76.20
56420;BME280;42323;52.170;7.538;2023-03-29T14:53:49;100870.09;;;12.78;74.66
56420;BME280;42323;52.170;7.538;2023-03-29T14:56:16;100870.00;;;12.72;74.65
56420;BME280;42323;52.170;7.538;2023-03-29T14:58:52;100860.69;;;12.54;75.35
56420;BME280;42323;52.170;7.538;2023-03-29T15:01:24;100871.56;;;12.51;75.40
56420;BME280;42323;52.170;7.538;2023-03-29T15:06:22;100868.94;;;13.02;74.21
56420;BME280;42323;52.170;7.538;2023-03-29T15:08:50;100838.38;;;13.01;73.25
56420;BME280;42323;52.170;7.538;2023-03-29T15:11:30;100857.97;;;13.35;73.04
56420;BME280;42323;52.170;7.538;2023-03-29T15:16:27;100852.75;;;14.26;69.97
56420;BME280;42323;52.170;7.538;2023-03-29T15:21:33;100857.22;;;14.25;69.04
56420;BME280;42323;52.170;7.538;2023-03-29T15:24:03;100842.94;;;14.13;69.49
56420;BME280;42323;52.170;7.538;2023-03-29T15:26:33;100847.63;;;14.18;69.29
56420;BME280;42323;52.170;7.538;2023-03-29T15:29:12;100830.53;;;14.07;68.35
56420;BME280;42323;52.170;7.538;2023-03-29T15:31:40;100838.34;;;13.94;69.05
56420;BME280;42323;52.170;7.538;2023-03-29T15:34:11;100833.81;;;13.81;69.84
56420;BME280;42323;52.170;7.538;2023-03-29T15:36:39;100834.81;;;13.80;70.26
56420;BME280;42323;52.170;7.538;2023-03-29T16:20:03;100794.47;;;12.44;76.09
56420;BME280;42323;52.170;7.538;2023-03-29T16:23:07;100798.19;;;12.35;75.96
56420;BME280;42323;52.170;7.538;2023-03-29T16:25:45;100773.00;;;12.26;76.13
56420;BME280;42323;52.170;7.538;2023-03-29T16:28:11;100777.44;;;12.25;76.68
56420;BME280;42323;52.170;7.538;2023-03-29T16:30:38;100754.84;;;12.10;76.97
56420;BME280;42323;52.170;7.538;2023-03-29T16:33:05;100774.56;;;12.05;77.88
56420;BME280;42323;52.170;7.538;2023-03-29T16:35:38;100767.59;;;11.98;78.48
56420;BME280;42323;52.170;7.538;2023-03-29T16:38:25;100706.38;;;11.53;78.33
56420;BME280;42323;52.170;7.538;2023-03-29T17:00:12;100702.47;;;11.34;81.37
56420;BME280;42323;52.170;7.538;2023-03-29T17:02:42;100717.66;;;11.39;81.25
56420;BME280;42323;52.170;7.538;2023-03-29T17:05:12;100718.47;;;11.39;81.28
56420;BME280;42323;52.170;7.538;2023-03-29T17:07:39;100714.88;;;11.40;82.09
56420;BME280;42323;52.170;7.538;2023-03-29T17:10:11;100679.38;;;11.15;81.44
56420;BME280;42323;52.170;7.538;2023-03-29T17:12:41;100677.72;;;11.14;81.21
56420;BME280;42323;52.170;7.538;2023-03-29T17:15:11;100682.69;;;11.09;81.74
56420;BME280;42323;52.170;7.538;2023-03-29T17:17:56;100664.13;;;10.95;81.51
56420;BME280;42323;52.170;7.538;2023-03-29T17:21:09;100655.38;;;10.88;82.45
56420;BME280;42323;52.170;7.538;2023-03-29T17:23:44;100679.34;;;11.00;82.34
56420;BME280;42323;52.170;7.538;2023-03-29T17:26:11;100646.03;;;10.71;82.01
56420;BME280;42323;52.170;7.538;2023-03-29T17:28:41;100670.78;;;10.83;83.03
56420;BME280;42323;52.170;7.538;2023-03-29T17:31:10;100706.19;;;11.02;82.80
56420;BME280;42323;52.170;7.538;2023-03-29T17:33:36;100691.00;;;10.97;82.65
56420;BME280;42323;52.170;7.538;2023-03-29T17:36:06;100696.41;;;10.96;83.19
56420;BME280;42323;52.170;7.538;2023-03-29T17:38:35;100643.28;;;10.64;83.97
56420;BME280;42323;52.170;7.538;2023-03-29T17:46:43;100662.38;;;10.50;84.50
56420;BME280;42323;52.170;7.538;2023-03-29T17:49:12;100703.47;;;10.72;84.68
56420;BME280;42323;52.170;7.538;2023-03-29T17:51:39;100708.78;;;10.64;85.45